Latest Weather Observations for Mount William

IDV60801

Issued at 8:32 pm EST Sunday 28 August 2016 (issued every 30 minutes, with the page automatically refreshed every 10 minutes)

About weather observations | Map of weather stations | Latest weather observations for VIC | Other Formats
Station Details ID: 079103 Name: MOUNT WILLIAM Lat: -37.30 Lon: 142.60 Height: 1150.0 m
Data from the previous 72 hours. | See also: Recent months at Mount William
Date/Time
EST
Temp
°C
App
Temp
°C
Dew
Point
°C
Rel
Hum
%
Delta-T
°C
Wind Press
QNH
hPa
Press
MSL
hPa
Rain since
9am
mm
Dir  Spd
km/h
Gust
km/h
Spd
kts
Gust
kts
28/08:30pm 6.1 -0.3 1.2 71 2.1 NNE 24 33 13 18 - - 0.0
28/08:00pm 6.2 -1.3 1.1 70 2.2 NNE 30 41 16 22 - - 0.0
28/07:30pm 6.4 -0.2 2.1 74 1.9 NNE 26 37 14 20 - - 0.0
28/07:00pm 6.5 0.8 2.9 78 1.6 NNE 22 28 12 15 - - 0.0
28/06:30pm 6.5 0.9 3.7 82 1.3 NNE 22 28 12 15 - - 0.0
28/06:00pm 6.7 2.6 4.2 84 1.2 NNE 15 24 8 13 - - 0.0
28/05:30pm 6.9 4.8 4.0 82 1.3 NNE 4 20 2 11 - - 0.0
28/05:00pm 7.3 5.2 3.7 78 1.7 N 4 20 2 11 - - 0.0
28/04:30pm 8.0 6.3 4.0 76 1.9 NNE 2 20 1 11 - - 0.0
28/04:00pm 8.5 6.3 3.4 70 2.3 N 4 24 2 13 - - 0.0
28/03:30pm 10.0 6.0 2.8 61 3.3 NNE 13 28 7 15 - - 0.0
28/03:00pm 10.9 9.0 3.0 58 3.7 N 2 20 1 11 - - 0.0
28/02:30pm 9.5 7.5 2.1 60 3.3 NNW 2 22 1 12 - - 0.0
28/02:00pm 10.1 7.3 2.0 57 3.7 NNW 6 20 3 11 - - 0.0
28/01:30pm 11.3 8.5 2.3 54 4.1 NW 6 24 3 13 - - 0.0
28/01:00pm 10.6 8.9 1.9 55 3.9 CALM 0 19 0 10 - - 0.0
28/12:30pm 9.2 6.2 2.3 62 3.1 WNW 7 26 4 14 - - 0.0
28/12:00pm 7.5 4.5 1.1 64 2.8 W 6 26 3 14 - - 0.0
28/11:30am 8.2 5.3 1.6 63 2.9 W 6 24 3 13 - - 0.0
28/11:00am 8.8 3.4 1.2 59 3.3 WNW 19 33 10 18 - - 0.0
28/10:30am 7.3 1.2 0.3 61 3.0 WNW 22 35 12 19 - - 0.0
28/10:00am 6.7 0.6 0.2 63 2.7 W 22 33 12 18 - - 0.0
28/09:30am 6.6 0.8 0.1 63 2.7 WNW 20 28 11 15 - - 0.0
28/09:00am 6.2 0.1 0.3 66 2.5 W 22 32 12 17 - - 0.0
28/08:30am 5.1 -1.5 -0.1 69 2.1 W 24 32 13 17 - - 0.0
28/08:00am 4.8 -2.1 0.0 71 2.0 W 26 33 14 18 - - 0.0
28/07:30am 4.0 -3.3 -0.2 74 1.7 W 28 33 15 18 - - 0.0
28/07:00am 4.3 -3.0 -0.3 72 1.9 W 28 39 15 21 - - 0.0
28/06:30am 3.9 -4.2 -0.3 74 1.7 W 32 37 17 20 - - 0.0
28/06:00am 3.9 -3.8 -0.3 74 1.7 W 30 35 16 19 - - 0.0
28/05:30am 3.9 -4.4 -0.3 74 1.7 W 33 41 18 22 - - 0.0
28/05:00am 3.9 -5.2 -0.3 74 1.7 W 37 46 20 25 - - 0.0
28/04:30am 3.6 -4.1 -0.2 76 1.5 W 30 37 16 20 - - 0.0
28/04:00am 3.6 -4.1 -0.4 75 1.6 WNW 30 37 16 20 - - 0.0
28/03:30am 3.6 -3.7 -0.2 76 1.5 WNW 28 37 15 20 - - 0.0
28/03:00am 3.6 -3.7 -0.2 76 1.5 WNW 28 39 15 21 - - 0.0
28/02:30am 3.5 -3.1 -0.1 77 1.5 WNW 24 32 13 17 - - 0.0
28/02:00am 3.4 -3.5 0.1 79 1.3 WNW 26 35 14 19 - - 0.0
28/01:30am 3.3 -3.2 0.5 82 1.1 WNW 24 32 13 17 - - 0.0
28/01:00am 3.1 -3.0 0.7 84 1.0 W 22 32 12 17 - - 0.0
28/12:30am 3.5 -3.7 0.9 83 1.1 W 28 37 15 20 - - 0.0
28/12:00am 3.6 -3.6 1.0 83 1.1 WNW 28 43 15 23 - - 0.0
 
Date/Time
EST
Temp
°C
App
Temp
°C
Dew
Point
°C
Rel
Hum
%
Delta-T
°C
Wind Press
QNH
hPa
Press
MSL
hPa
Rain since
9am
mm
Dir  Spd
km/h
Gust
km/h
Spd
kts
Gust
kts
27/11:30pm 3.7 -3.8 0.9 82 1.2 WNW 30 43 16 23 - - 0.0
27/11:00pm 3.6 -3.9 1.0 83 1.1 W 30 43 16 23 - - 0.0
27/10:30pm 3.9 -4.2 0.8 80 1.3 WNW 33 50 18 27 - - 0.0
27/10:00pm 3.5 -4.6 1.1 84 1.0 WNW 33 43 18 23 - - 0.0
27/09:30pm 3.6 -4.4 1.6 87 0.8 WNW 33 48 18 26 - - 0.0
27/09:00pm 3.7 -4.1 1.9 88 0.8 WNW 32 50 17 27 - - 0.0
27/08:30pm 3.9 -4.1 1.8 86 0.9 WNW 33 50 18 27 - - 0.0
27/08:00pm 3.7 -4.1 1.6 86 0.9 WNW 32 44 17 24 - - 0.0
27/07:30pm 3.8 -5.0 1.4 84 1.0 WNW 37 50 20 27 - - 0.0
27/07:00pm 3.5 -4.9 1.4 86 0.9 WNW 35 50 19 27 - - 0.0
27/06:30pm 3.7 -4.6 2.4 91 0.6 WNW 35 48 19 26 - - 0.0
27/06:05pm 3.4 -3.9 2.2 92 0.5 WNW 30 50 16 27 - - 0.0
27/06:00pm 3.4 -3.9 2.2 92 0.5 W 30 43 16 23 - - 0.0
27/05:30pm 3.5 -3.8 2.2 91 0.6 W 30 44 16 24 - - 0.0
27/05:02pm 4.0 -3.9 2.4 89 0.7 WNW 33 54 18 29 - - 0.0
27/05:00pm 3.9 -3.8 2.3 89 0.7 WNW 32 48 17 26 - - 0.0
27/04:30pm 3.6 -5.1 2.1 90 0.6 WNW 37 50 20 27 - - 0.0
27/04:00pm 3.5 -4.3 1.9 89 0.7 WNW 32 44 17 24 - - 0.0
27/03:30pm 3.3 -5.1 1.5 88 0.8 WNW 35 50 19 27 - - 0.0
27/03:00pm 3.0 -6.2 1.2 88 0.7 WNW 39 57 21 31 - - 0.0
27/02:38pm 3.0 -5.0 1.5 90 0.6 WNW 33 56 18 30 - - 0.0
27/02:30pm 3.1 -4.9 1.8 91 0.5 WNW 33 48 18 26 - - 0.0
27/02:14pm 3.6 -3.8 1.8 88 0.8 WNW 30 54 16 29 - - 0.0
27/02:00pm 3.7 -3.7 1.6 86 0.9 WNW 30 43 16 23 - - 0.0
27/01:48pm 3.3 -4.1 1.8 90 0.6 WNW 30 50 16 27 - - 0.0
27/01:30pm 3.1 -4.7 1.6 90 0.6 WNW 32 46 17 25 - - 0.0
27/01:03pm 3.2 -4.6 1.6 89 0.7 WNW 32 50 17 27 - - 0.0
27/01:00pm 3.4 -4.6 1.4 87 0.8 WNW 33 50 18 27 - - 0.0
27/12:43pm 3.4 -4.4 1.8 89 0.7 WNW 32 50 17 27 - - 0.0
27/12:30pm 3.3 -5.1 1.8 90 0.6 W 35 50 19 27 - - 0.0
27/12:00pm 2.8 -5.2 1.5 91 0.5 WNW 33 52 18 28 - - 0.0
27/11:46am 2.3 -5.6 1.0 91 0.5 WNW 32 50 17 27 - - 0.0
27/11:30am 2.0 -6.5 0.8 92 0.5 WNW 35 52 19 28 - - 0.0
27/11:19am 1.8 -6.4 0.6 92 0.5 WNW 33 52 18 28 - - 0.0
27/11:00am 2.8 -5.1 1.2 89 0.7 WNW 32 48 17 26 - - 0.0
27/10:30am 1.8 -7.1 0.6 92 0.5 W 37 57 20 31 - - 0.0
27/10:09am 1.1 -8.6 0.4 95 0.3 W 41 61 22 33 - - 0.0
27/10:00am 1.0 -8.3 0.4 96 0.2 W 39 56 21 30 - - 0.0
27/09:30am 1.0 -7.2 0.4 96 0.2 W 33 44 18 24 - - 0.0
27/09:00am 0.8 -7.2 0.7 99 0.0 W 32 46 17 25 - - 0.0
27/08:30am 0.5 -7.5 0.4 99 0.0 W 32 44 17 24 - - 0.0
27/08:00am 0.2 -5.9 0.1 99 0.0 WNW 22 35 12 19 - - 0.0
27/07:30am 0.4 -5.3 0.3 99 0.0 W 20 33 11 18 - - 0.0
27/07:00am 0.3 -6.2 0.2 99 0.0 W 24 41 13 22 - - 0.0
27/06:30am 0.3 -5.3 0.2 99 0.0 W 19 28 10 15 - - 0.0
27/06:00am 0.3 -6.2 0.2 99 0.0 W 24 41 13 22 - - 0.0
27/05:30am 0.2 -5.0 0.1 99 0.0 WNW 17 37 9 20 - - 0.0
27/05:00am 0.1 -6.1 0.0 99 0.0 W 22 37 12 20 - - 0.0
27/04:30am 0.1 -5.5 0.0 99 0.0 W 19 35 10 19 - - 0.0
27/04:00am 0.2 -5.6 0.1 99 0.0 W 20 32 11 17 - - 0.0
27/03:30am 0.3 -6.2 0.2 99 0.0 WNW 24 33 13 18 - - 0.0
27/03:00am 0.4 -5.7 0.3 99 0.0 W 22 33 12 18 - - 0.0
27/02:30am 0.5 -5.6 0.4 99 0.0 W 22 32 12 17 - - 0.0
27/02:00am 0.6 -5.1 0.5 99 0.0 W 20 32 11 17 - - 0.0
27/01:30am 0.7 -5.0 0.6 99 0.0 WSW 20 37 11 20 - - 0.0
27/01:00am 0.8 -2.4 0.7 99 0.0 W 7 30 4 16 - - 0.0
27/12:30am 1.1 -1.5 1.0 99 0.0 WSW 4 24 2 13 - - 0.0
27/12:00am 1.3 -0.5 1.2 99 0.0 CALM 0 20 0 11 - - 0.0
 
Date/Time
EST
Temp
°C
App
Temp
°C
Dew
Point
°C
Rel
Hum
%
Delta-T
°C
Wind Press
QNH
hPa
Press
MSL
hPa
Rain since
9am
mm
Dir  Spd
km/h
Gust
km/h
Spd
kts
Gust
kts
26/11:30pm 1.1 -0.7 1.0 99 0.0 CALM 0 20 0 11 - - 0.0
26/11:00pm 1.3 -1.8 1.2 99 0.0 WSW 7 24 4 13 - - 0.0
26/10:30pm 1.1 -1.5 1.0 99 0.0 W 4 24 2 13 - - 0.0
26/10:00pm 1.5 -1.0 1.4 99 0.0 WSW 4 33 2 18 - - 0.0
26/09:30pm 1.9 0.2 1.8 99 0.0 CALM 0 0 0 0 - - 0.0
26/09:00pm 1.9 -0.2 1.8 99 0.0 W 2 26 1 14 - - 0.0
26/08:30pm 1.8 -0.3 1.7 99 0.0 W 2 26 1 14 - - 0.0
26/08:00pm 1.7 0.0 1.6 99 0.0 CALM 0 0 0 0 - - 0.0
26/07:30pm 1.7 0.0 1.6 99 0.0 CALM 0 0 0 0 - - 0.0
26/07:00pm 1.9 0.1 1.0 94 0.4 CALM 0 26 0 14 - - 0.0
26/06:30pm 1.8 0.0 0.9 94 0.4 CALM 0 0 0 0 - - 0.0
26/06:00pm 1.7 -0.1 1.0 95 0.3 CALM 0 0 0 0 - - 0.0
26/05:30pm 2.0 0.1 0.5 90 0.6 CALM 0 24 0 13 - - 0.0
26/05:00pm 2.2 0.3 0.7 90 0.6 CALM 0 0 0 0 - - 0.0
26/04:30pm 2.7 0.9 1.1 89 0.7 CALM 0 0 0 0 - - 0.0
26/04:00pm 2.7 0.9 1.2 90 0.6 CALM 0 0 0 0 - - 0.0
26/03:30pm 3.0 1.2 1.2 88 0.7 CALM 0 26 0 14 - - 0.0
26/03:00pm 2.9 1.1 1.0 87 0.8 CALM 0 0 0 0 - - 0.0
26/02:30pm 3.1 1.3 1.3 88 0.7 CALM 0 0 0 0 - - 0.0
26/02:00pm 2.9 1.1 1.1 88 0.7 CALM 0 0 0 0 - - 0.0
26/01:30pm 3.0 1.1 0.7 85 0.9 CALM 0 0 0 0 - - 0.0
26/01:00pm 2.6 0.8 1.1 90 0.6 CALM 0 0 0 0 - - 0.0
26/12:30pm 1.9 0.1 0.9 93 0.4 CALM 0 0 0 0 - - 0.0
26/12:00pm 1.8 0.0 0.9 94 0.4 CALM 0 0 0 0 - - 0.0
26/11:30am 1.6 -0.3 0.6 93 0.4 CALM 0 0 0 0 - - 0.0
26/11:00am 1.6 -0.2 0.9 95 0.3 CALM 0 0 0 0 - - 0.0
26/10:30am 0.9 -1.0 0.5 97 0.2 CALM 0 0 0 0 - - 0.0
26/10:00am 0.4 -1.9 0.1 98 0.1 WSW 2 28 1 15 - - 0.0
26/09:30am 0.4 -1.5 0.3 99 0.0 CALM 0 0 0 0 - - 0.0
26/09:00am 0.2 -1.8 0.1 99 0.0 CALM 0 0 0 0 - - 0.0
26/08:30am -0.2 -2.2 -0.3 99 0.0 CALM 0 0 0 0 - - 0.0
26/08:00am -0.2 -2.2 -0.3 99 0.0 CALM 0 0 0 0 - - 0.0
26/07:30am -0.3 -2.3 -0.4 99 0.0 CALM 0 0 0 0 - - 0.0
26/07:00am -0.3 -2.3 -0.4 99 0.0 CALM 0 0 0 0 - - 0.0
26/06:30am -0.3 -2.3 -0.4 99 0.0 CALM 0 0 0 0 - - 0.0
26/06:00am -0.5 -2.6 -0.6 99 0.0 CALM 0 0 0 0 - - 0.0
26/05:30am -0.6 -2.7 -0.7 99 0.0 CALM 0 0 0 0 - - 0.0
26/05:00am -0.6 -2.7 -0.7 99 0.0 CALM 0 0 0 0 - - 0.0
26/04:30am -0.7 -2.8 -0.8 99 0.0 CALM 0 0 0 0 - - 0.0
26/04:00am -0.6 -2.7 -0.7 99 0.0 CALM 0 0 0 0 - - 0.0
26/03:30am -0.4 -3.6 -0.5 99 0.0 WSW 6 28 3 15 - - 0.0
26/03:00am -0.1 -2.1 -0.2 99 0.0 CALM 0 26 0 14 - - 0.0
26/02:30am 0.0 -2.4 -0.1 99 0.0 WSW 2 28 1 15 - - 0.0
26/02:00am 0.1 -1.9 0.0 99 0.0 CALM 0 0 0 0 - - 0.0
26/01:30am 0.3 -1.7 0.2 99 0.0 CALM 0 0 0 0 - - 0.0
26/01:00am 0.4 -1.5 0.3 99 0.0 CALM 0 0 0 0 - - 0.0
26/12:30am 0.3 -2.8 0.2 99 0.0 SW 6 28 3 15 - - 0.0
26/12:00am 0.4 -2.3 0.3 99 0.0 WSW 4 30 2 16 - - 0.0
 
Date/Time
EST
Temp
°C
App
Temp
°C
Dew
Point
°C
Rel
Hum
%
Delta-T
°C
Wind Press
QNH
hPa
Press
MSL
hPa
Rain since
9am
mm
Dir  Spd
km/h
Gust
km/h
Spd
kts
Gust
kts
25/11:30pm 0.6 -3.0 0.5 99 0.0 - 9 28 5 15 - - 0.0
25/11:00pm 0.7 -1.2 0.6 99 0.0 CALM 0 26 0 14 - - 0.0
25/10:30pm 0.7 -3.3 0.6 99 0.0 SW 11 32 6 17 - - 0.0
25/10:00pm 0.9 -1.7 0.8 99 0.0 SW 4 30 2 16 - - 0.0
25/09:30pm 1.1 -1.9 1.0 99 0.0 SW 6 30 3 16 - - 0.0
25/09:00pm 1.1 -1.5 1.0 99 0.0 SW 4 30 2 16 - - 0.0

Other Formats:

Comma delimited format used in spreadsheet applications
http://www.bom.gov.au/fwo/IDV60801/IDV60801.94833.axf

JavaScript Object Notation format (JSON) in row-major order
http://www.bom.gov.au/fwo/IDV60801/IDV60801.94833.json